sensor_id;sensor_type;location;lat;lon;timestamp;temperature;humidity
68433;DHT22;55412;51.350;17.056;2023-02-02T00:01:29;3.80;80.90
68433;DHT22;55412;51.350;17.056;2023-02-02T00:03:55;3.80;80.90
68433;DHT22;55412;51.350;17.056;2023-02-02T00:06:23;3.80;80.90
68433;DHT22;55412;51.350;17.056;2023-02-02T00:08:50;3.80;81.00
68433;DHT22;55412;51.350;17.056;2023-02-02T00:11:18;3.90;81.00
68433;DHT22;55412;51.350;17.056;2023-02-02T00:13:44;3.90;81.00
68433;DHT22;55412;51.350;17.056;2023-02-02T00:18:53;3.90;80.90
68433;DHT22;55412;51.350;17.056;2023-02-02T00:21:24;3.90;80.90
68433;DHT22;55412;51.350;17.056;2023-02-02T00:23:50;3.90;80.90
68433;DHT22;55412;51.350;17.056;2023-02-02T00:26:17;3.90;80.90
68433;DHT22;55412;51.350;17.056;2023-02-02T00:28:43;3.90;80.90
68433;DHT22;55412;51.350;17.056;2023-02-02T00:31:09;3.90;80.90
68433;DHT22;55412;51.350;17.056;2023-02-02T00:33:36;3.90;80.90
68433;DHT22;55412;51.350;17.056;2023-02-02T00:36:02;3.90;80.90
68433;DHT22;55412;51.350;17.056;2023-02-02T00:38:30;3.90;80.90
68433;DHT22;55412;51.350;17.056;2023-02-02T00:40:56;3.90;80.80
68433;DHT22;55412;51.350;17.056;2023-02-02T00:43:22;3.90;80.90
68433;DHT22;55412;51.350;17.056;2023-02-02T00:45:49;3.90;80.90
68433;DHT22;55412;51.350;17.056;2023-02-02T00:48:15;3.90;80.90
68433;DHT22;55412;51.350;17.056;2023-02-02T00:50:41;4.00;80.90
68433;DHT22;55412;51.350;17.056;2023-02-02T00:53:07;4.00;80.80
68433;DHT22;55412;51.350;17.056;2023-02-02T00:55:33;4.00;80.90
68433;DHT22;55412;51.350;17.056;2023-02-02T00:57:59;4.00;80.80
68433;DHT22;55412;51.350;17.056;2023-02-02T01:00:25;3.90;80.80
68433;DHT22;55412;51.350;17.056;2023-02-02T01:02:52;4.00;80.90
68433;DHT22;55412;51.350;17.056;2023-02-02T01:05:19;3.90;80.90
68433;DHT22;55412;51.350;17.056;2023-02-02T01:07:46;3.90;80.80
68433;DHT22;55412;51.350;17.056;2023-02-02T01:12:42;3.90;80.70
68433;DHT22;55412;51.350;17.056;2023-02-02T01:15:10;3.90;80.90
68433;DHT22;55412;51.350;17.056;2023-02-02T01:17:37;3.90;80.80
68433;DHT22;55412;51.350;17.056;2023-02-02T01:20:05;3.90;80.80
68433;DHT22;55412;51.350;17.056;2023-02-02T01:22:32;3.90;80.80
68433;DHT22;55412;51.350;17.056;2023-02-02T01:25:00;3.90;80.80
68433;DHT22;55412;51.350;17.056;2023-02-02T01:27:26;3.90;80.90
68433;DHT22;55412;51.350;17.056;2023-02-02T01:29:52;3.90;80.90
68433;DHT22;55412;51.350;17.056;2023-02-02T01:32:18;3.90;80.80
68433;DHT22;55412;51.350;17.056;2023-02-02T01:34:44;3.90;80.90
68433;DHT22;55412;51.350;17.056;2023-02-02T01:37:10;3.90;80.80
68433;DHT22;55412;51.350;17.056;2023-02-02T01:39:36;3.90;80.80
68433;DHT22;55412;51.350;17.056;2023-02-02T01:42:03;3.90;80.80
68433;DHT22;55412;51.350;17.056;2023-02-02T01:47:52;3.90;80.80
68433;DHT22;55412;51.350;17.056;2023-02-02T01:50:23;3.90;80.70
68433;DHT22;55412;51.350;17.056;2023-02-02T01:52:53;3.90;80.90
68433;DHT22;55412;51.350;17.056;2023-02-02T01:55:22;3.90;80.80
68433;DHT22;55412;51.350;17.056;2023-02-02T01:57:59;3.90;80.80
68433;DHT22;55412;51.350;17.056;2023-02-02T02:00:30;3.90;80.70
68433;DHT22;55412;51.350;17.056;2023-02-02T02:02:59;3.90;80.80
68433;DHT22;55412;51.350;17.056;2023-02-02T02:05:37;3.90;80.80
68433;DHT22;55412;51.350;17.056;2023-02-02T02:08:16;3.90;80.80
68433;DHT22;55412;51.350;17.056;2023-02-02T02:10:43;4.00;80.80
68433;DHT22;55412;51.350;17.056;2023-02-02T02:13:10;4.00;80.70
68433;DHT22;55412;51.350;17.056;2023-02-02T02:16:02;4.00;80.80
68433;DHT22;55412;51.350;17.056;2023-02-02T02:22:12;4.00;80.70
68433;DHT22;55412;51.350;17.056;2023-02-02T02:33:44;4.00;80.60
68433;DHT22;55412;51.350;17.056;2023-02-02T02:37:01;4.00;80.70
68433;DHT22;55412;51.350;17.056;2023-02-02T02:39:49;4.00;80.60
68433;DHT22;55412;51.350;17.056;2023-02-02T02:42:35;4.00;80.70
68433;DHT22;55412;51.350;17.056;2023-02-02T02:45:05;4.00;80.60
68433;DHT22;55412;51.350;17.056;2023-02-02T02:47:34;4.00;80.60
68433;DHT22;55412;51.350;17.056;2023-02-02T02:50:00;4.00;80.70
68433;DHT22;55412;51.350;17.056;2023-02-02T02:52:26;4.00;80.70
68433;DHT22;55412;51.350;17.056;2023-02-02T02:54:53;4.00;80.70
68433;DHT22;55412;51.350;17.056;2023-02-02T03:01:07;4.10;80.60
68433;DHT22;55412;51.350;17.056;2023-02-02T03:06:32;4.10;80.60
68433;DHT22;55412;51.350;17.056;2023-02-02T03:09:12;4.10;80.60
68433;DHT22;55412;51.350;17.056;2023-02-02T03:11:42;4.10;80.60
68433;DHT22;55412;51.350;17.056;2023-02-02T03:14:09;4.10;80.60
68433;DHT22;55412;51.350;17.056;2023-02-02T03:16:35;4.10;80.60
68433;DHT22;55412;51.350;17.056;2023-02-02T03:19:02;4.10;80.60
68433;DHT22;55412;51.350;17.056;2023-02-02T03:21:30;4.10;80.60
68433;DHT22;55412;51.350;17.056;2023-02-02T03:23:58;4.10;80.50
68433;DHT22;55412;51.350;17.056;2023-02-02T03:26:24;4.10;80.50
68433;DHT22;55412;51.350;17.056;2023-02-02T03:28:52;4.10;80.60
68433;DHT22;55412;51.350;17.056;2023-02-02T03:31:20;4.20;80.50
68433;DHT22;55412;51.350;17.056;2023-02-02T03:33:46;4.20;80.50
68433;DHT22;55412;51.350;17.056;2023-02-02T03:36:12;4.20;80.40
68433;DHT22;55412;51.350;17.056;2023-02-02T03:38:38;4.20;80.40
68433;DHT22;55412;51.350;17.056;2023-02-02T03:41:05;4.20;80.40
68433;DHT22;55412;51.350;17.056;2023-02-02T03:43:31;4.20;80.40
68433;DHT22;55412;51.350;17.056;2023-02-02T03:45:59;4.20;80.40
68433;DHT22;55412;51.350;17.056;2023-02-02T03:48:27;4.20;80.40
68433;DHT22;55412;51.350;17.056;2023-02-02T03:50:53;4.20;80.40
68433;DHT22;55412;51.350;17.056;2023-02-02T03:53:19;4.20;80.40
68433;DHT22;55412;51.350;17.056;2023-02-02T03:55:45;4.30;80.40
68433;DHT22;55412;51.350;17.056;2023-02-02T03:58:11;4.20;80.40
68433;DHT22;55412;51.350;17.056;2023-02-02T04:00:37;4.30;80.40
68433;DHT22;55412;51.350;17.056;2023-02-02T04:03:03;4.30;80.30
68433;DHT22;55412;51.350;17.056;2023-02-02T04:05:29;4.30;80.30
68433;DHT22;55412;51.350;17.056;2023-02-02T04:07:55;4.30;80.30
68433;DHT22;55412;51.350;17.056;2023-02-02T04:10:21;4.30;80.20
68433;DHT22;55412;51.350;17.056;2023-02-02T04:12:47;4.30;80.20
68433;DHT22;55412;51.350;17.056;2023-02-02T04:15:13;4.20;80.30
68433;DHT22;55412;51.350;17.056;2023-02-02T04:17:40;4.30;80.20
68433;DHT22;55412;51.350;17.056;2023-02-02T04:20:06;4.20;80.30
68433;DHT22;55412;51.350;17.056;2023-02-02T04:22:33;4.30;80.20
68433;DHT22;55412;51.350;17.056;2023-02-02T04:24:59;4.30;80.20
68433;DHT22;55412;51.350;17.056;2023-02-02T04:27:25;4.20;80.20
68433;DHT22;55412;51.350;17.056;2023-02-02T04:29:51;4.30;80.20
68433;DHT22;55412;51.350;17.056;2023-02-02T04:32:17;4.30;80.20
68433;DHT22;55412;51.350;17.056;2023-02-02T04:34:44;4.30;80.20
68433;DHT22;55412;51.350;17.056;2023-02-02T04:37:10;4.30;80.20
68433;DHT22;55412;51.350;17.056;2023-02-02T04:39:36;4.30;80.20
68433;DHT22;55412;51.350;17.056;2023-02-02T04:42:03;4.30;80.10
68433;DHT22;55412;51.350;17.056;2023-02-02T04:44:29;4.30;80.10
68433;DHT22;55412;51.350;17.056;2023-02-02T04:46:55;4.30;80.20
68433;DHT22;55412;51.350;17.056;2023-02-02T04:49:21;4.30;80.20
68433;DHT22;55412;51.350;17.056;2023-02-02T04:51:47;4.30;80.10
68433;DHT22;55412;51.350;17.056;2023-02-02T04:54:14;4.30;80.10
68433;DHT22;55412;51.350;17.056;2023-02-02T04:56:41;4.40;80.10
68433;DHT22;55412;51.350;17.056;2023-02-02T04:59:07;4.40;80.10
68433;DHT22;55412;51.350;17.056;2023-02-02T05:01:33;4.40;80.10
68433;DHT22;55412;51.350;17.056;2023-02-02T05:03:59;4.40;80.00
68433;DHT22;55412;51.350;17.056;2023-02-02T05:06:25;4.40;80.10
68433;DHT22;55412;51.350;17.056;2023-02-02T05:08:51;4.40;80.10
68433;DHT22;55412;51.350;17.056;2023-02-02T05:11:19;4.40;80.00
68433;DHT22;55412;51.350;17.056;2023-02-02T05:13:48;4.40;80.00
68433;DHT22;55412;51.350;17.056;2023-02-02T05:16:15;4.40;80.00
68433;DHT22;55412;51.350;17.056;2023-02-02T05:18:42;4.40;80.00
68433;DHT22;55412;51.350;17.056;2023-02-02T05:21:08;4.40;80.00
68433;DHT22;55412;51.350;17.056;2023-02-02T05:23:35;4.50;80.00
68433;DHT22;55412;51.350;17.056;2023-02-02T05:26:01;4.50;80.00
68433;DHT22;55412;51.350;17.056;2023-02-02T05:28:27;4.50;80.00
68433;DHT22;55412;51.350;17.056;2023-02-02T05:30:53;4.50;80.00
68433;DHT22;55412;51.350;17.056;2023-02-02T05:33:19;4.50;79.90
68433;DHT22;55412;51.350;17.056;2023-02-02T05:35:46;4.50;79.90
68433;DHT22;55412;51.350;17.056;2023-02-02T05:38:13;4.50;79.90
68433;DHT22;55412;51.350;17.056;2023-02-02T05:40:40;4.50;80.00
68433;DHT22;55412;51.350;17.056;2023-02-02T05:43:06;4.50;79.90
68433;DHT22;55412;51.350;17.056;2023-02-02T05:45:32;4.50;79.90
68433;DHT22;55412;51.350;17.056;2023-02-02T05:47:59;4.50;79.80
68433;DHT22;55412;51.350;17.056;2023-02-02T05:50:25;4.50;79.80
68433;DHT22;55412;51.350;17.056;2023-02-02T05:52:51;4.50;79.80
68433;DHT22;55412;51.350;17.056;2023-02-02T05:55:17;4.50;79.80
68433;DHT22;55412;51.350;17.056;2023-02-02T05:57:45;4.40;79.80
68433;DHT22;55412;51.350;17.056;2023-02-02T06:00:11;4.50;79.90
68433;DHT22;55412;51.350;17.056;2023-02-02T06:02:38;4.40;79.80
68433;DHT22;55412;51.350;17.056;2023-02-02T06:05:04;4.40;79.90
68433;DHT22;55412;51.350;17.056;2023-02-02T06:07:30;4.40;79.80
68433;DHT22;55412;51.350;17.056;2023-02-02T06:09:56;4.40;79.90
68433;DHT22;55412;51.350;17.056;2023-02-02T06:12:22;4.30;79.90
68433;DHT22;55412;51.350;17.056;2023-02-02T06:14:48;4.30;79.90
68433;DHT22;55412;51.350;17.056;2023-02-02T06:17:14;4.30;79.90
68433;DHT22;55412;51.350;17.056;2023-02-02T06:19:40;4.30;79.90
68433;DHT22;55412;51.350;17.056;2023-02-02T06:22:06;4.30;79.90
68433;DHT22;55412;51.350;17.056;2023-02-02T06:24:33;4.30;79.90
68433;DHT22;55412;51.350;17.056;2023-02-02T06:26:58;4.30;80.00
68433;DHT22;55412;51.350;17.056;2023-02-02T06:29:24;4.30;79.90
68433;DHT22;55412;51.350;17.056;2023-02-02T06:31:50;4.20;80.10
68433;DHT22;55412;51.350;17.056;2023-02-02T06:34:16;4.30;80.00
68433;DHT22;55412;51.350;17.056;2023-02-02T06:36:43;4.20;80.00
68433;DHT22;55412;51.350;17.056;2023-02-02T06:39:09;4.20;80.10
68433;DHT22;55412;51.350;17.056;2023-02-02T06:41:35;4.20;80.10
68433;DHT22;55412;51.350;17.056;2023-02-02T06:44:01;4.20;80.00
68433;DHT22;55412;51.350;17.056;2023-02-02T06:46:27;4.20;80.10
68433;DHT22;55412;51.350;17.056;2023-02-02T06:48:53;4.20;80.00
68433;DHT22;55412;51.350;17.056;2023-02-02T06:51:19;4.20;80.00
68433;DHT22;55412;51.350;17.056;2023-02-02T06:53:48;4.20;80.10
68433;DHT22;55412;51.350;17.056;2023-02-02T06:56:15;4.20;80.10
68433;DHT22;55412;51.350;17.056;2023-02-02T06:58:41;4.20;80.10
68433;DHT22;55412;51.350;17.056;2023-02-02T07:01:09;4.20;80.10
68433;DHT22;55412;51.350;17.056;2023-02-02T07:03:37;4.20;80.10
68433;DHT22;55412;51.350;17.056;2023-02-02T07:06:15;4.20;80.10
68433;DHT22;55412;51.350;17.056;2023-02-02T07:08:43;4.20;80.20
68433;DHT22;55412;51.350;17.056;2023-02-02T07:11:09;4.20;80.20
68433;DHT22;55412;51.350;17.056;2023-02-02T07:13:36;4.20;80.20
68433;DHT22;55412;51.350;17.056;2023-02-02T07:16:05;4.20;80.20
68433;DHT22;55412;51.350;17.056;2023-02-02T07:18:34;4.20;80.30
68433;DHT22;55412;51.350;17.056;2023-02-02T07:21:04;4.20;80.30
68433;DHT22;55412;51.350;17.056;2023-02-02T07:23:32;4.20;80.20
68433;DHT22;55412;51.350;17.056;2023-02-02T07:26:06;4.20;80.30
68433;DHT22;55412;51.350;17.056;2023-02-02T07:28:34;4.20;80.20
68433;DHT22;55412;51.350;17.056;2023-02-02T07:31:00;4.20;80.20
68433;DHT22;55412;51.350;17.056;2023-02-02T07:33:36;4.20;80.40
68433;DHT22;55412;51.350;17.056;2023-02-02T07:36:05;4.20;80.30
68433;DHT22;55412;51.350;17.056;2023-02-02T07:38:31;4.20;80.50
68433;DHT22;55412;51.350;17.056;2023-02-02T07:40:59;4.20;80.40
68433;DHT22;55412;51.350;17.056;2023-02-02T07:43:26;4.20;80.40
68433;DHT22;55412;51.350;17.056;2023-02-02T07:45:52;4.20;80.40
68433;DHT22;55412;51.350;17.056;2023-02-02T07:48:18;4.20;80.50
68433;DHT22;55412;51.350;17.056;2023-02-02T07:50:44;4.20;80.60
68433;DHT22;55412;51.350;17.056;2023-02-02T07:53:10;4.20;80.60
68433;DHT22;55412;51.350;17.056;2023-02-02T07:55:36;4.20;80.50
68433;DHT22;55412;51.350;17.056;2023-02-02T07:58:02;4.20;80.50
68433;DHT22;55412;51.350;17.056;2023-02-02T08:00:28;4.20;80.50
68433;DHT22;55412;51.350;17.056;2023-02-02T08:02:54;4.20;80.40
68433;DHT22;55412;51.350;17.056;2023-02-02T08:05:20;4.20;80.50
68433;DHT22;55412;51.350;17.056;2023-02-02T08:07:47;4.20;80.40
68433;DHT22;55412;51.350;17.056;2023-02-02T08:10:13;4.20;80.60
68433;DHT22;55412;51.350;17.056;2023-02-02T08:12:39;4.30;80.50
68433;DHT22;55412;51.350;17.056;2023-02-02T08:15:06;4.30;80.50
68433;DHT22;55412;51.350;17.056;2023-02-02T08:17:32;4.40;80.60
68433;DHT22;55412;51.350;17.056;2023-02-02T08:19:58;4.40;80.60
68433;DHT22;55412;51.350;17.056;2023-02-02T08:22:24;4.50;80.70
68433;DHT22;55412;51.350;17.056;2023-02-02T08:24:50;4.60;80.60
68433;DHT22;55412;51.350;17.056;2023-02-02T08:27:16;4.60;80.70
68433;DHT22;55412;51.350;17.056;2023-02-02T08:29:42;4.70;80.60
68433;DHT22;55412;51.350;17.056;2023-02-02T08:32:08;4.90;80.60
68433;DHT22;55412;51.350;17.056;2023-02-02T08:34:34;5.00;80.70
68433;DHT22;55412;51.350;17.056;2023-02-02T08:37:02;5.10;80.40
68433;DHT22;55412;51.350;17.056;2023-02-02T08:39:28;5.20;80.10
68433;DHT22;55412;51.350;17.056;2023-02-02T08:41:55;5.20;80.30
68433;DHT22;55412;51.350;17.056;2023-02-02T08:44:21;5.20;79.80
68433;DHT22;55412;51.350;17.056;2023-02-02T08:46:47;5.20;79.80
68433;DHT22;55412;51.350;17.056;2023-02-02T08:49:13;5.10;79.80
68433;DHT22;55412;51.350;17.056;2023-02-02T08:51:40;5.10;79.60
68433;DHT22;55412;51.350;17.056;2023-02-02T08:54:06;5.10;79.40
68433;DHT22;55412;51.350;17.056;2023-02-02T08:56:32;5.00;79.30
68433;DHT22;55412;51.350;17.056;2023-02-02T08:58:58;4.90;79.30
68433;DHT22;55412;51.350;17.056;2023-02-02T09:01:26;4.90;78.90
68433;DHT22;55412;51.350;17.056;2023-02-02T09:03:55;4.80;79.20
68433;DHT22;55412;51.350;17.056;2023-02-02T09:06:28;4.80;79.20
68433;DHT22;55412;51.350;17.056;2023-02-02T09:08:56;4.80;78.90
68433;DHT22;55412;51.350;17.056;2023-02-02T09:11:22;4.70;79.00
68433;DHT22;55412;51.350;17.056;2023-02-02T09:13:52;4.70;79.20
68433;DHT22;55412;51.350;17.056;2023-02-02T09:16:20;4.70;79.00
68433;DHT22;55412;51.350;17.056;2023-02-02T09:18:46;4.70;79.10
68433;DHT22;55412;51.350;17.056;2023-02-02T09:21:15;4.70;78.80
68433;DHT22;55412;51.350;17.056;2023-02-02T09:23:43;4.70;78.50
68433;DHT22;55412;51.350;17.056;2023-02-02T09:26:12;4.80;78.80
68433;DHT22;55412;51.350;17.056;2023-02-02T09:28:43;4.80;78.80
68433;DHT22;55412;51.350;17.056;2023-02-02T09:31:11;4.90;78.80
68433;DHT22;55412;51.350;17.056;2023-02-02T09:33:37;4.90;78.80
68433;DHT22;55412;51.350;17.056;2023-02-02T09:36:09;5.00;78.60
68433;DHT22;55412;51.350;17.056;2023-02-02T09:38:38;5.10;78.70
68433;DHT22;55412;51.350;17.056;2023-02-02T09:41:18;5.20;78.90
68433;DHT22;55412;51.350;17.056;2023-02-02T09:44:29;5.30;78.90
68433;DHT22;55412;51.350;17.056;2023-02-02T09:47:23;5.50;78.90
68433;DHT22;55412;51.350;17.056;2023-02-02T09:53:41;5.90;78.40
68433;DHT22;55412;51.350;17.056;2023-02-02T09:56:25;5.90;78.00
68433;DHT22;55412;51.350;17.056;2023-02-02T09:58:56;6.00;77.20
68433;DHT22;55412;51.350;17.056;2023-02-02T10:01:33;5.90;77.20
68433;DHT22;55412;51.350;17.056;2023-02-02T10:04:05;5.90;77.00
68433;DHT22;55412;51.350;17.056;2023-02-02T10:06:50;5.90;77.00
68433;DHT22;55412;51.350;17.056;2023-02-02T10:14:51;6.10;77.00
68433;DHT22;55412;51.350;17.056;2023-02-02T10:26:17;6.60;76.80
68433;DHT22;55412;51.350;17.056;2023-02-02T10:31:45;6.70;76.70
68433;DHT22;55412;51.350;17.056;2023-02-02T10:34:36;6.80;76.40
68433;DHT22;55412;51.350;17.056;2023-02-02T10:42:46;6.70;75.20
68433;DHT22;55412;51.350;17.056;2023-02-02T10:45:47;6.60;75.00
68433;DHT22;55412;51.350;17.056;2023-02-02T10:48:21;6.40;74.90
68433;DHT22;55412;51.350;17.056;2023-02-02T10:50:53;6.30;74.30
68433;DHT22;55412;51.350;17.056;2023-02-02T10:53:20;6.10;74.00
68433;DHT22;55412;51.350;17.056;2023-02-02T10:56:04;6.00;74.20
68433;DHT22;55412;51.350;17.056;2023-02-02T10:58:49;5.90;73.60
68433;DHT22;55412;51.350;17.056;2023-02-02T11:01:21;5.80;73.70
68433;DHT22;55412;51.350;17.056;2023-02-02T11:03:48;5.70;73.50
68433;DHT22;55412;51.350;17.056;2023-02-02T11:06:35;5.70;73.70
68433;DHT22;55412;51.350;17.056;2023-02-02T11:09:29;5.60;73.40
68433;DHT22;55412;51.350;17.056;2023-02-02T11:12:03;5.50;73.50
68433;DHT22;55412;51.350;17.056;2023-02-02T11:14:36;5.50;73.40
68433;DHT22;55412;51.350;17.056;2023-02-02T11:17:22;5.50;73.40
68433;DHT22;55412;51.350;17.056;2023-02-02T11:19:49;5.50;73.70
68433;DHT22;55412;51.350;17.056;2023-02-02T11:22:32;5.60;73.90
68433;DHT22;55412;51.350;17.056;2023-02-02T11:25:39;5.60;73.80
68433;DHT22;55412;51.350;17.056;2023-02-02T11:28:12;5.70;73.80
68433;DHT22;55412;51.350;17.056;2023-02-02T11:30:47;5.70;73.70
68433;DHT22;55412;51.350;17.056;2023-02-02T11:33:30;5.70;73.00
68433;DHT22;55412;51.350;17.056;2023-02-02T11:38:30;5.70;73.40
68433;DHT22;55412;51.350;17.056;2023-02-02T11:43:39;5.70;73.40
68433;DHT22;55412;51.350;17.056;2023-02-02T11:49:01;5.90;73.40
68433;DHT22;55412;51.350;17.056;2023-02-02T11:51:33;5.90;73.50
68433;DHT22;55412;51.350;17.056;2023-02-02T11:54:26;5.90;73.50
68433;DHT22;55412;51.350;17.056;2023-02-02T11:57:00;5.90;73.50
68433;DHT22;55412;51.350;17.056;2023-02-02T12:04:39;6.00;73.00
68433;DHT22;55412;51.350;17.056;2023-02-02T12:07:28;5.90;72.90
68433;DHT22;55412;51.350;17.056;2023-02-02T12:09:59;5.90;72.70
68433;DHT22;55412;51.350;17.056;2023-02-02T12:12:55;5.90;72.80
68433;DHT22;55412;51.350;17.056;2023-02-02T12:18:34;5.80;72.50
68433;DHT22;55412;51.350;17.056;2023-02-02T12:21:21;5.80;72.60
68433;DHT22;55412;51.350;17.056;2023-02-02T12:24:15;5.70;72.50
68433;DHT22;55412;51.350;17.056;2023-02-02T12:26:53;5.70;72.50
68433;DHT22;55412;51.350;17.056;2023-02-02T12:29:53;5.70;72.30
68433;DHT22;55412;51.350;17.056;2023-02-02T12:32:46;5.60;72.20
68433;DHT22;55412;51.350;17.056;2023-02-02T12:41:43;5.50;72.00
68433;DHT22;55412;51.350;17.056;2023-02-02T13:05:04;5.40;71.90
68433;DHT22;55412;51.350;17.056;2023-02-02T13:07:44;5.40;71.90
68433;DHT22;55412;51.350;17.056;2023-02-02T13:10:17;5.30;71.80
68433;DHT22;55412;51.350;17.056;2023-02-02T13:12:53;5.40;71.70
68433;DHT22;55412;51.350;17.056;2023-02-02T13:15:22;5.30;71.60
68433;DHT22;55412;51.350;17.056;2023-02-02T13:17:56;5.30;71.60
68433;DHT22;55412;51.350;17.056;2023-02-02T13:21:00;5.20;71.40
68433;DHT22;55412;51.350;17.056;2023-02-02T13:23:35;5.20;71.50
68433;DHT22;55412;51.350;17.056;2023-02-02T13:26:11;5.20;71.60
68433;DHT22;55412;51.350;17.056;2023-02-02T13:40:51;4.80;71.70
68433;DHT22;55412;51.350;17.056;2023-02-02T13:49:14;4.60;71.90
68433;DHT22;55412;51.350;17.056;2023-02-02T13:51:55;4.50;72.00
68433;DHT22;55412;51.350;17.056;2023-02-02T14:00:33;4.40;72.20
68433;DHT22;55412;51.350;17.056;2023-02-02T14:06:18;4.40;72.30
68433;DHT22;55412;51.350;17.056;2023-02-02T14:09:02;4.30;72.40
68433;DHT22;55412;51.350;17.056;2023-02-02T14:11:31;4.30;72.40
68433;DHT22;55412;51.350;17.056;2023-02-02T14:14:14;4.20;72.60
68433;DHT22;55412;51.350;17.056;2023-02-02T14:19:59;4.20;72.80
68433;DHT22;55412;51.350;17.056;2023-02-02T14:28:00;4.10;72.80
68433;DHT22;55412;51.350;17.056;2023-02-02T14:30:33;4.10;72.90
68433;DHT22;55412;51.350;17.056;2023-02-02T14:35:52;4.10;73.00
68433;DHT22;55412;51.350;17.056;2023-02-02T14:39:02;4.10;73.00
68433;DHT22;55412;51.350;17.056;2023-02-02T14:42:04;4.10;73.10
68433;DHT22;55412;51.350;17.056;2023-02-02T14:45:28;4.10;73.10
68433;DHT22;55412;51.350;17.056;2023-02-02T14:48:10;4.10;73.20
68433;DHT22;55412;51.350;17.056;2023-02-02T14:50:50;4.10;73.20
68433;DHT22;55412;51.350;17.056;2023-02-02T14:53:27;4.10;73.20
68433;DHT22;55412;51.350;17.056;2023-02-02T14:58:52;4.10;73.10
68433;DHT22;55412;51.350;17.056;2023-02-02T15:03:57;4.10;73.10
68433;DHT22;55412;51.350;17.056;2023-02-02T15:06:45;4.00;73.10
68433;DHT22;55412;51.350;17.056;2023-02-02T15:25:39;3.70;72.40
68433;DHT22;55412;51.350;17.056;2023-02-02T15:28:36;3.70;72.40
68433;DHT22;55412;51.350;17.056;2023-02-02T15:31:27;3.70;72.30
68433;DHT22;55412;51.350;17.056;2023-02-02T15:36:56;3.50;72.10
68433;DHT22;55412;51.350;17.056;2023-02-02T15:39:30;3.50;72.20
68433;DHT22;55412;51.350;17.056;2023-02-02T15:42:01;3.50;72.20
68433;DHT22;55412;51.350;17.056;2023-02-02T15:44:48;3.50;72.10
68433;DHT22;55412;51.350;17.056;2023-02-02T15:47:21;3.50;71.90
68433;DHT22;55412;51.350;17.056;2023-02-02T15:49:53;3.40;71.80
68433;DHT22;55412;51.350;17.056;2023-02-02T15:52:29;3.40;71.70
68433;DHT22;55412;51.350;17.056;2023-02-02T15:55:29;3.30;71.40
68433;DHT22;55412;51.350;17.056;2023-02-02T15:57:56;3.20;71.40
68433;DHT22;55412;51.350;17.056;2023-02-02T16:00:33;3.10;71.20
68433;DHT22;55412;51.350;17.056;2023-02-02T16:03:15;3.00;71.10
68433;DHT22;55412;51.350;17.056;2023-02-02T16:05:53;3.00;71.10
68433;DHT22;55412;51.350;17.056;2023-02-02T16:08:25;2.90;70.90
68433;DHT22;55412;51.350;17.056;2023-02-02T16:11:13;2.80;70.90
68433;DHT22;55412;51.350;17.056;2023-02-02T16:13:57;2.80;70.80
68433;DHT22;55412;51.350;17.056;2023-02-02T16:16:31;2.70;70.80
68433;DHT22;55412;51.350;17.056;2023-02-02T16:22:00;2.70;70.70
68433;DHT22;55412;51.350;17.056;2023-02-02T16:24:56;2.60;70.70
68433;DHT22;55412;51.350;17.056;2023-02-02T16:27:29;2.60;70.60
68433;DHT22;55412;51.350;17.056;2023-02-02T16:30:06;2.60;70.60
68433;DHT22;55412;51.350;17.056;2023-02-02T16:32:37;2.60;70.60
68433;DHT22;55412;51.350;17.056;2023-02-02T16:35:22;2.60;70.60
68433;DHT22;55412;51.350;17.056;2023-02-02T16:38:31;2.60;70.60
68433;DHT22;55412;51.350;17.056;2023-02-02T16:41:18;2.60;70.50
68433;DHT22;55412;51.350;17.056;2023-02-02T16:44:27;2.60;70.50
68433;DHT22;55412;51.350;17.056;2023-02-02T16:46:55;2.50;70.40
68433;DHT22;55412;51.350;17.056;2023-02-02T16:49:24;2.50;70.50
68433;DHT22;55412;51.350;17.056;2023-02-02T16:52:13;2.50;70.30
68433;DHT22;55412;51.350;17.056;2023-02-02T16:55:09;2.50;70.20
68433;DHT22;55412;51.350;17.056;2023-02-02T16:57:36;2.40;70.30
68433;DHT22;55412;51.350;17.056;2023-02-02T17:00:05;2.40;70.20
68433;DHT22;55412;51.350;17.056;2023-02-02T17:02:39;2.30;70.20
68433;DHT22;55412;51.350;17.056;2023-02-02T17:05:23;2.30;70.00
68433;DHT22;55412;51.350;17.056;2023-02-02T17:07:59;2.30;70.00
68433;DHT22;55412;51.350;17.056;2023-02-02T17:10:34;2.20;70.00
68433;DHT22;55412;51.350;17.056;2023-02-02T17:13:32;2.10;70.00
68433;DHT22;55412;51.350;17.056;2023-02-02T17:15:58;2.10;69.90
68433;DHT22;55412;51.350;17.056;2023-02-02T17:18:25;2.10;69.80
68433;DHT22;55412;51.350;17.056;2023-02-02T17:20:53;2.10;69.70
68433;DHT22;55412;51.350;17.056;2023-02-02T17:23:24;2.00;69.70
68433;DHT22;55412;51.350;17.056;2023-02-02T17:25:52;2.00;69.70
68433;DHT22;55412;51.350;17.056;2023-02-02T17:28:23;2.00;69.60
68433;DHT22;55412;51.350;17.056;2023-02-02T17:31:04;1.90;69.70
68433;DHT22;55412;51.350;17.056;2023-02-02T17:33:33;1.90;69.60
68433;DHT22;55412;51.350;17.056;2023-02-02T17:36:00;1.90;69.50
68433;DHT22;55412;51.350;17.056;2023-02-02T17:38:27;1.80;69.40
68433;DHT22;55412;51.350;17.056;2023-02-02T17:40:54;1.80;69.40
68433;DHT22;55412;51.350;17.056;2023-02-02T17:43:21;1.80;69.40
68433;DHT22;55412;51.350;17.056;2023-02-02T17:45:48;1.80;69.50
68433;DHT22;55412;51.350;17.056;2023-02-02T17:48:15;1.80;69.40
68433;DHT22;55412;51.350;17.056;2023-02-02T17:50:41;1.80;69.40
68433;DHT22;55412;51.350;17.056;2023-02-02T17:53:13;1.80;69.50
68433;DHT22;55412;51.350;17.056;2023-02-02T17:55:42;1.80;69.50
68433;DHT22;55412;51.350;17.056;2023-02-02T17:58:10;1.80;69.50
68433;DHT22;55412;51.350;17.056;2023-02-02T18:00:39;1.80;69.60
68433;DHT22;55412;51.350;17.056;2023-02-02T18:03:18;1.90;69.60
68433;DHT22;55412;51.350;17.056;2023-02-02T18:05:47;1.90;69.60
68433;DHT22;55412;51.350;17.056;2023-02-02T18:08:14;1.90;69.50
68433;DHT22;55412;51.350;17.056;2023-02-02T18:10:42;1.90;69.60
68433;DHT22;55412;51.350;17.056;2023-02-02T18:13:16;2.00;69.60
68433;DHT22;55412;51.350;17.056;2023-02-02T18:15:48;2.00;69.70
68433;DHT22;55412;51.350;17.056;2023-02-02T18:18:16;2.00;69.60
68433;DHT22;55412;51.350;17.056;2023-02-02T18:20:47;2.00;69.70
68433;DHT22;55412;51.350;17.056;2023-02-02T18:23:15;2.10;69.60
68433;DHT22;55412;51.350;17.056;2023-02-02T18:25:42;2.10;69.50
68433;DHT22;55412;51.350;17.056;2023-02-02T18:28:09;2.10;69.50
68433;DHT22;55412;51.350;17.056;2023-02-02T18:30:39;2.10;69.40
68433;DHT22;55412;51.350;17.056;2023-02-02T18:33:10;2.10;69.40
68433;DHT22;55412;51.350;17.056;2023-02-02T18:35:41;2.10;69.40
68433;DHT22;55412;51.350;17.056;2023-02-02T18:38:11;2.10;69.40
68433;DHT22;55412;51.350;17.056;2023-02-02T18:40:39;2.10;69.40
68433;DHT22;55412;51.350;17.056;2023-02-02T18:43:05;2.10;69.30